Ault, Kentucky
Current Conditions -  °F | °C
As of 5:10 AM on Tuesday 27 Jan 2015 (Local Time) from KSYM Reporting Station
Overcast Overcast  
Wind Chill: -4°   Ceiling: 7000
Heat Index: -4°   Visibility: 10mi
Dew Point: -6°   Wind: 3mph
Humidity: 86%   Direction: 340°NNW
Pressure: 29.92"   Gusts: NA
Location:  38.3543°N, 83.1837°W
Report Text: KSYM 271010Z AUTO 34003KT 10SM OVC070 M04/M06 A2992 RMK AO2
Loading
Personal Weather Stations






























Interactive Weather Map New forecast layout! Learn more

10-Day Weather Forecast

Advertisements
Track Severe Weather on mobile